createdAt,value
2022-09-12T00:01:19.422Z,100.00
2022-09-12T00:03:47.868Z,100.00
2022-09-12T00:06:22.988Z,100.00
2022-09-12T00:08:53.639Z,100.00
2022-09-12T00:11:20.884Z,100.00
2022-09-12T00:13:48.620Z,100.00
2022-09-12T00:16:22.790Z,100.00
2022-09-12T00:18:50.508Z,100.00
2022-09-12T00:21:18.805Z,100.00
2022-09-12T00:23:47.251Z,100.00
2022-09-12T00:26:15.481Z,100.00
2022-09-12T00:28:42.973Z,100.00
2022-09-12T00:31:16.988Z,100.00
2022-09-12T00:33:45.115Z,100.00
2022-09-12T00:36:19.029Z,100.00
2022-09-12T00:38:47.100Z,100.00
2022-09-12T00:41:29.446Z,100.00
2022-09-12T00:44:02.967Z,100.00
2022-09-12T00:46:36.281Z,100.00
2022-09-12T00:49:13.039Z,100.00
2022-09-12T00:51:47.368Z,100.00
2022-09-12T00:54:19.227Z,100.00
2022-09-12T00:56:51.061Z,100.00
2022-09-12T00:59:25.197Z,100.00
2022-09-12T01:01:52.917Z,100.00
2022-09-12T01:04:23.019Z,100.00
2022-09-12T01:06:52.046Z,100.00
2022-09-12T01:09:22.362Z,100.00
2022-09-12T01:11:51.751Z,100.00
2022-09-12T01:14:20.391Z,100.00
2022-09-12T01:16:49.897Z,100.00
2022-09-12T01:19:46.173Z,100.00
2022-09-12T01:22:50.351Z,100.00
2022-09-12T01:25:37.980Z,100.00
2022-09-12T01:28:18.101Z,100.00
2022-09-12T01:30:52.171Z,100.00
2022-09-12T01:33:33.303Z,100.00
2022-09-12T01:36:25.830Z,100.00
2022-09-12T01:39:03.752Z,100.00
2022-09-12T01:42:00.536Z,100.00
2022-09-12T01:44:45.804Z,100.00
2022-09-12T01:47:41.266Z,100.00
2022-09-12T01:50:32.183Z,100.00
2022-09-12T01:53:23.983Z,100.00
2022-09-12T01:55:57.087Z,100.00
2022-09-12T01:58:34.650Z,100.00
2022-09-12T02:01:11.071Z,100.00
2022-09-12T02:03:56.248Z,100.00
2022-09-12T02:06:31.300Z,100.00
2022-09-12T02:09:06.149Z,100.00
2022-09-12T02:11:40.149Z,100.00
2022-09-12T02:14:13.743Z,100.00
2022-09-12T02:16:46.214Z,100.00
2022-09-12T02:19:18.803Z,100.00
2022-09-12T02:22:05.832Z,100.00
2022-09-12T02:24:47.887Z,100.00
2022-09-12T02:27:21.512Z,100.00
2022-09-12T02:29:50.210Z,100.00
2022-09-12T02:32:27.162Z,100.00
2022-09-12T02:35:01.395Z,100.00
2022-09-12T02:38:16.245Z,100.00
2022-09-12T02:40:43.548Z,100.00
2022-09-12T02:43:10.977Z,100.00
2022-09-12T02:45:38.993Z,100.00
2022-09-12T02:48:13.684Z,100.00
2022-09-12T02:50:42.377Z,100.00
2022-09-12T02:53:11.299Z,100.00
2022-09-12T02:55:41.475Z,100.00
2022-09-12T02:58:15.031Z,100.00
2022-09-12T03:00:46.645Z,100.00
2022-09-12T03:03:16.846Z,100.00
2022-09-12T03:05:59.737Z,100.00
2022-09-12T03:08:40.583Z,100.00
2022-09-12T03:11:20.194Z,100.00
2022-09-12T03:14:36.253Z,100.00
2022-09-12T03:17:12.676Z,100.00
2022-09-12T03:19:54.859Z,100.00
2022-09-12T03:22:38.918Z,100.00
2022-09-12T03:25:17.371Z,100.00
2022-09-12T03:27:55.835Z,100.00
2022-09-12T03:30:23.411Z,100.00
2022-09-12T03:32:53.344Z,100.00
2022-09-12T03:35:24.075Z,100.00
2022-09-12T03:37:52.366Z,100.00
2022-09-12T03:40:20.029Z,100.00
2022-09-12T03:42:48.065Z,100.00
2022-09-12T03:45:16.556Z,100.00
2022-09-12T03:47:43.789Z,100.00
2022-09-12T03:50:11.320Z,100.00
2022-09-12T03:52:38.871Z,100.00
2022-09-12T03:55:06.811Z,100.00
2022-09-12T03:57:34.160Z,100.00
2022-09-12T04:00:02.363Z,100.00
2022-09-12T04:02:40.004Z,100.00
2022-09-12T04:05:07.520Z,100.00
2022-09-12T04:07:35.344Z,100.00
2022-09-12T04:10:04.092Z,100.00
2022-09-12T04:12:32.169Z,100.00
2022-09-12T04:14:59.455Z,100.00
2022-09-12T04:17:26.708Z,100.00
2022-09-12T04:19:53.972Z,100.00
2022-09-12T04:22:21.263Z,100.00
2022-09-12T04:24:48.887Z,100.00
2022-09-12T04:27:16.265Z,100.00
2022-09-12T04:29:44.839Z,100.00
2022-09-12T04:32:12.949Z,100.00
2022-09-12T04:34:40.181Z,100.00
2022-09-12T04:37:07.485Z,100.00
2022-09-12T04:39:34.698Z,100.00
2022-09-12T04:42:02.092Z,100.00
2022-09-12T04:44:29.568Z,100.00
2022-09-12T04:46:57.314Z,100.00
2022-09-12T04:49:24.729Z,100.00
2022-09-12T04:51:55.035Z,100.00
2022-09-12T04:54:22.801Z,100.00
2022-09-12T04:56:51.644Z,100.00
2022-09-12T04:59:20.859Z,100.00
2022-09-12T05:01:48.670Z,100.00
2022-09-12T05:04:16.255Z,100.00
2022-09-12T05:06:44.076Z,100.00
2022-09-12T05:09:14.099Z,100.00
2022-09-12T05:14:32.763Z,100.00
2022-09-12T05:17:01.841Z,100.00
2022-09-12T05:19:30.645Z,100.00
2022-09-12T05:21:58.963Z,100.00
2022-09-12T05:24:26.474Z,100.00
2022-09-12T05:26:53.819Z,100.00
2022-09-12T05:29:21.456Z,100.00
2022-09-12T05:31:50.899Z,100.00
2022-09-12T05:34:19.204Z,100.00
2022-09-12T05:36:46.657Z,100.00
2022-09-12T05:39:14.909Z,100.00
2022-09-12T05:41:42.342Z,100.00
2022-09-12T05:44:12.417Z,100.00
2022-09-12T05:46:42.983Z,100.00
2022-09-12T05:49:12.632Z,100.00
2022-09-12T05:51:43.228Z,100.00
2022-09-12T05:54:12.808Z,100.00
2022-09-12T05:56:42.106Z,100.00
2022-09-12T05:59:21.816Z,100.00
2022-09-12T06:01:50.119Z,100.00
2022-09-12T06:04:17.856Z,100.00
2022-09-12T06:06:46.479Z,100.00
2022-09-12T06:09:15.812Z,100.00
2022-09-12T06:11:45.177Z,100.00
2022-09-12T06:14:14.933Z,100.00
2022-09-12T06:16:42.664Z,100.00
2022-09-12T06:19:21.726Z,100.00
2022-09-12T06:21:49.739Z,100.00
2022-09-12T06:24:18.656Z,100.00
2022-09-12T06:26:47.339Z,100.00
2022-09-12T06:29:15.225Z,100.00
2022-09-12T06:31:43.762Z,100.00
2022-09-12T06:34:14.047Z,100.00
2022-09-12T06:36:46.905Z,100.00
2022-09-12T06:39:24.996Z,100.00
2022-09-12T06:41:52.894Z,100.00
2022-09-12T06:44:33.839Z,100.00
2022-09-12T06:47:01.099Z,100.00
2022-09-12T06:49:29.039Z,100.00
2022-09-12T06:51:56.329Z,100.00
2022-09-12T06:54:26.332Z,100.00
2022-09-12T06:56:54.001Z,100.00
2022-09-12T06:59:23.190Z,100.00
2022-09-12T07:01:51.102Z,100.00
2022-09-12T07:04:18.330Z,100.00
2022-09-12T07:06:45.596Z,100.00
2022-09-12T07:09:16.505Z,100.00
2022-09-12T07:11:46.873Z,100.00
2022-09-12T07:14:15.362Z,100.00
2022-09-12T07:16:43.553Z,100.00
2022-09-12T07:19:11.398Z,100.00
2022-09-12T07:21:42.171Z,100.00
2022-09-12T07:24:10.644Z,100.00
2022-09-12T07:26:40.496Z,100.00
2022-09-12T07:29:35.344Z,100.00
2022-09-12T07:32:02.306Z,100.00
2022-09-12T07:34:29.841Z,100.00
2022-09-12T07:36:57.086Z,100.00
2022-09-12T07:39:25.171Z,100.00
2022-09-12T07:41:52.868Z,100.00
2022-09-12T07:44:21.928Z,100.00
2022-09-12T07:46:50.713Z,100.00
2022-09-12T07:49:17.939Z,100.00
2022-09-12T07:51:45.837Z,100.00
2022-09-12T07:54:13.804Z,100.00
2022-09-12T07:56:41.759Z,100.00
2022-09-12T07:59:08.989Z,100.00
2022-09-12T08:01:36.614Z,100.00
2022-09-12T08:04:05.248Z,100.00
2022-09-12T08:06:35.972Z,100.00
2022-09-12T08:09:05.175Z,100.00
2022-09-12T08:11:33.074Z,100.00
2022-09-12T08:14:02.844Z,100.00
2022-09-12T08:16:31.470Z,100.00
2022-09-12T08:19:01.730Z,100.00
2022-09-12T08:21:31.315Z,100.00
2022-09-12T08:24:04.244Z,100.00
2022-09-12T08:26:33.200Z,100.00
2022-09-12T08:29:01.445Z,100.00
2022-09-12T08:31:29.147Z,100.00
2022-09-12T08:33:56.996Z,100.00
2022-09-12T08:36:27.335Z,100.00
2022-09-12T08:38:59.629Z,100.00
2022-09-12T08:41:49.698Z,100.00
2022-09-12T08:44:41.528Z,100.00
2022-09-12T08:47:23.990Z,100.00
2022-09-12T08:50:04.425Z,100.00
2022-09-12T08:52:32.645Z,100.00
2022-09-12T08:55:01.961Z,100.00
2022-09-12T08:57:29.684Z,100.00
2022-09-12T08:59:57.609Z,100.00
2022-09-12T09:03:01.783Z,100.00
2022-09-12T09:05:51.721Z,100.00
2022-09-12T09:08:58.692Z,100.00
2022-09-12T09:11:36.879Z,100.00
2022-09-12T09:14:33.250Z,100.00
2022-09-12T09:17:01.983Z,100.00
2022-09-12T09:19:39.507Z,100.00
2022-09-12T09:22:27.378Z,100.00
2022-09-12T09:25:10.350Z,100.00
2022-09-12T09:27:47.481Z,100.00
2022-09-12T09:30:19.057Z,100.00
2022-09-12T09:32:49.805Z,100.00
2022-09-12T09:35:33.181Z,100.00
2022-09-12T09:38:24.257Z,100.00
2022-09-12T09:41:15.266Z,100.00
2022-09-12T09:43:43.581Z,100.00
2022-09-12T09:46:14.567Z,100.00
2022-09-12T09:48:54.727Z,100.00
2022-09-12T09:51:28.565Z,100.00
2022-09-12T09:54:21.667Z,100.00
2022-09-12T09:56:51.868Z,100.00
2022-09-12T09:59:31.344Z,100.00
2022-09-12T10:02:04.247Z,100.00
2022-09-12T10:04:41.090Z,100.00
2022-09-12T10:07:20.120Z,100.00
2022-09-12T10:10:16.679Z,97.14
2022-09-12T10:12:46.412Z,100.00
2022-09-12T10:15:26.636Z,97.66
2022-09-12T10:17:56.057Z,95.29
2022-09-12T10:20:38.447Z,97.14
2022-09-12T10:23:41.105Z,96.13
2022-09-12T10:26:14.627Z,89.57
2022-09-12T10:29:13.718Z,88.92
2022-09-12T10:31:46.673Z,89.27
2022-09-12T10:34:42.176Z,89.43
2022-09-12T10:37:30.899Z,92.07
2022-09-12T10:40:00.141Z,87.01
2022-09-12T10:42:48.270Z,89.78
2022-09-12T10:45:35.573Z,88.83
2022-09-12T10:48:28.049Z,85.55
2022-09-12T10:50:56.943Z,81.93
2022-09-12T10:53:34.488Z,80.46
2022-09-12T10:56:08.051Z,81.68
2022-09-12T10:58:45.202Z,76.91
2022-09-12T11:01:32.920Z,79.33
2022-09-12T11:04:21.816Z,77.78
2022-09-12T11:07:16.724Z,79.47
2022-09-12T11:10:13.404Z,79.89
2022-09-12T11:12:57.141Z,77.94
2022-09-12T11:16:02.220Z,72.69
2022-09-12T11:19:04.063Z,70.01
2022-09-12T11:21:50.896Z,68.05
2022-09-12T11:24:37.177Z,68.33
2022-09-12T11:27:13.094Z,67.36
2022-09-12T11:30:10.401Z,66.25
2022-09-12T11:32:56.300Z,64.60
2022-09-12T11:35:31.048Z,63.37
2022-09-12T11:38:08.312Z,63.81
2022-09-12T11:40:43.699Z,65.80
2022-09-12T11:43:44.506Z,65.53
2022-09-12T11:46:39.051Z,65.71
2022-09-12T11:49:15.736Z,65.65
2022-09-12T11:52:07.382Z,63.86
2022-09-12T11:54:59.481Z,63.15
2022-09-12T11:57:33.596Z,62.88
2022-09-12T12:00:15.981Z,64.71
2022-09-12T12:03:08.266Z,65.64
2022-09-12T12:06:16.148Z,62.30
2022-09-12T12:08:46.080Z,61.00
2022-09-12T12:11:16.595Z,59.96
2022-09-12T12:13:56.454Z,60.13
2022-09-12T12:16:33.806Z,57.81
2022-09-12T12:19:06.503Z,56.16
2022-09-12T12:21:45.468Z,55.11
2022-09-12T12:24:25.282Z,54.16
2022-09-12T12:26:53.030Z,56.28
2022-09-12T12:29:20.411Z,53.89
2022-09-12T12:32:04.435Z,50.73
2022-09-12T12:34:36.151Z,50.43
2022-09-12T12:37:19.588Z,49.05
2022-09-12T12:39:52.409Z,50.52
2022-09-12T12:42:35.304Z,48.91
2022-09-12T12:45:04.870Z,48.75
2022-09-12T12:47:40.302Z,48.30
2022-09-12T12:50:11.099Z,50.49
2022-09-12T12:52:50.707Z,47.29
2022-09-12T12:55:26.891Z,48.69
2022-09-12T12:58:00.737Z,44.17
2022-09-12T13:00:39.949Z,45.91
2022-09-12T13:03:07.327Z,46.86
2022-09-12T13:05:47.309Z,46.41
2022-09-12T13:08:18.231Z,43.69
2022-09-12T13:10:59.890Z,47.63
2022-09-12T13:13:48.614Z,43.89
2022-09-12T13:16:53.145Z,46.35
2022-09-12T13:19:32.712Z,44.39
2022-09-12T13:22:05.224Z,43.51
2022-09-12T13:24:34.668Z,42.40
2022-09-12T13:27:03.091Z,44.18
2022-09-12T13:29:31.361Z,40.12
2022-09-12T13:32:01.922Z,43.89
2022-09-12T13:34:43.280Z,42.98
2022-09-12T13:37:49.688Z,44.51
2022-09-12T13:41:03.024Z,40.57
2022-09-12T13:43:41.738Z,40.78
2022-09-12T13:46:13.435Z,42.96
2022-09-12T13:48:41.473Z,41.25
2022-09-12T13:51:24.277Z,41.10
2022-09-12T13:53:56.178Z,39.65
2022-09-12T13:56:24.207Z,39.09
2022-09-12T13:59:00.831Z,39.70
2022-09-12T14:01:42.182Z,38.55
2022-09-12T14:04:41.027Z,40.28
2022-09-12T14:07:15.874Z,40.95
2022-09-12T14:09:47.036Z,29.27
2022-09-12T14:12:25.183Z,23.68
2022-09-12T14:14:53.432Z,21.03
2022-09-12T14:17:33.197Z,21.42
2022-09-12T14:20:03.409Z,19.24
2022-09-12T14:22:32.401Z,16.18
2022-09-12T14:25:01.069Z,15.24
2022-09-12T14:27:43.100Z,15.71
2022-09-12T14:30:30.565Z,15.16
2022-09-12T14:33:09.822Z,15.75
2022-09-12T14:35:51.648Z,17.65
2022-09-12T14:38:24.971Z,18.04
2022-09-12T14:41:00.918Z,18.17
2022-09-12T14:43:32.577Z,17.06
2022-09-12T14:46:07.177Z,17.03
2022-09-12T14:48:46.835Z,16.08
2022-09-12T14:51:25.300Z,16.87
2022-09-12T14:53:53.692Z,17.81
2022-09-12T14:56:37.189Z,17.49
2022-09-12T14:59:28.319Z,16.48
2022-09-12T15:02:14.469Z,18.73
2022-09-12T15:04:45.282Z,16.93
2022-09-12T15:07:34.813Z,16.30
2022-09-12T15:10:06.391Z,14.51
2022-09-12T15:12:33.756Z,15.18
2022-09-12T15:15:13.430Z,16.34
2022-09-12T15:17:41.123Z,16.62
2022-09-12T15:20:09.149Z,14.51
2022-09-12T15:22:38.463Z,14.24
2022-09-12T15:25:06.965Z,14.62
2022-09-12T15:27:34.656Z,14.64
2022-09-12T15:30:02.756Z,15.73
2022-09-12T15:32:30.834Z,16.43
2022-09-12T15:34:58.087Z,15.96
2022-09-12T15:37:25.439Z,15.06
2022-09-12T15:39:53.147Z,17.79
2022-09-12T15:42:28.381Z,18.28
2022-09-12T15:44:58.445Z,15.90
2022-09-12T15:47:29.305Z,15.70
2022-09-12T15:49:57.092Z,14.76
2022-09-12T15:52:24.836Z,16.40
2022-09-12T15:54:52.374Z,17.06
2022-09-12T15:57:20.022Z,15.60
2022-09-12T15:59:47.446Z,15.43
2022-09-12T16:02:15.177Z,16.33
2022-09-12T16:04:42.809Z,15.96
2022-09-12T16:07:10.059Z,16.91
2022-09-12T16:09:37.591Z,17.77
2022-09-12T16:12:04.940Z,16.46
2022-09-12T16:14:32.528Z,17.94
2022-09-12T16:16:59.965Z,17.43
2022-09-12T16:19:27.406Z,20.36
2022-09-12T16:21:55.075Z,19.96
2022-09-12T16:24:22.491Z,20.27
2022-09-12T16:26:50.189Z,20.58
2022-09-12T16:29:17.920Z,20.49
2022-09-12T16:31:45.361Z,21.43
2022-09-12T16:34:13.723Z,22.89
2022-09-12T16:36:41.396Z,26.51
2022-09-12T16:39:08.977Z,25.89
2022-09-12T16:41:36.272Z,25.91
2022-09-12T16:44:03.964Z,25.50
2022-09-12T16:46:31.791Z,25.65
2022-09-12T16:48:59.395Z,27.33
2022-09-12T16:51:32.281Z,30.66
2022-09-12T16:54:00.909Z,30.79
2022-09-12T16:56:28.517Z,30.72
2022-09-12T16:58:55.985Z,30.95
2022-09-12T17:01:25.355Z,35.02
2022-09-12T17:03:55.154Z,37.00
2022-09-12T17:06:23.902Z,38.24
2022-09-12T17:08:53.526Z,39.93
2022-09-12T17:11:23.489Z,41.36
2022-09-12T17:14:04.553Z,41.56
2022-09-12T17:16:39.559Z,42.39
2022-09-12T17:19:08.062Z,43.98
2022-09-12T17:21:36.381Z,44.86
2022-09-12T17:24:04.066Z,46.91
2022-09-12T17:26:31.680Z,47.18
2022-09-12T17:28:58.980Z,48.69
2022-09-12T17:31:26.689Z,49.30
2022-09-12T17:34:01.300Z,48.98
2022-09-12T17:36:31.903Z,50.77
2022-09-12T17:38:59.608Z,52.99
2022-09-12T17:41:29.383Z,54.49
2022-09-12T17:43:58.355Z,57.64
2022-09-12T17:46:37.580Z,55.78
2022-09-12T17:49:11.987Z,58.81
2022-09-12T17:51:40.381Z,58.51
2022-09-12T17:54:16.228Z,60.62
2022-09-12T17:56:46.481Z,59.20
2022-09-12T17:59:17.404Z,62.27
2022-09-12T18:02:03.646Z,64.45
2022-09-12T18:04:31.368Z,64.42
2022-09-12T18:07:00.592Z,65.74
2022-09-12T18:09:28.436Z,68.42
2022-09-12T18:11:56.481Z,68.97
2022-09-12T18:14:24.949Z,65.82
2022-09-12T18:16:52.444Z,65.70
2022-09-12T18:19:19.811Z,65.27
2022-09-12T18:21:47.611Z,66.21
2022-09-12T18:24:15.814Z,65.94
2022-09-12T18:26:45.642Z,64.05
2022-09-12T18:29:16.963Z,63.08
2022-09-12T18:31:45.013Z,61.91
2022-09-12T18:34:13.798Z,60.72
2022-09-12T18:36:46.303Z,62.04
2022-09-12T18:39:15.448Z,63.21
2022-09-12T18:41:43.333Z,61.08
2022-09-12T18:44:12.203Z,62.43
2022-09-12T18:46:39.973Z,62.01
2022-09-12T18:49:09.291Z,63.23
2022-09-12T18:51:37.328Z,63.36
2022-09-12T18:54:07.292Z,64.92
2022-09-12T18:56:38.200Z,63.80
2022-09-12T18:59:07.793Z,65.32
2022-09-12T19:01:37.620Z,67.54
2022-09-12T19:04:07.576Z,65.89
2022-09-12T19:06:38.293Z,67.46
2022-09-12T19:09:08.354Z,69.13
2022-09-12T19:11:42.448Z,68.16
2022-09-12T19:14:10.736Z,69.02
2022-09-12T19:16:38.106Z,69.81
2022-09-12T19:19:06.163Z,72.71
2022-09-12T19:21:34.581Z,71.24
2022-09-12T19:24:05.564Z,71.82
2022-09-12T19:26:34.208Z,71.48
2022-09-12T19:29:03.027Z,72.05
2022-09-12T19:31:31.440Z,75.60
2022-09-12T19:34:01.558Z,77.67
2022-09-12T19:36:46.661Z,83.53
2022-09-12T19:39:16.911Z,84.72
2022-09-12T19:41:44.947Z,85.37
2022-09-12T19:44:12.666Z,85.32
2022-09-12T19:46:40.681Z,86.59
2022-09-12T19:49:10.153Z,91.06
2022-09-12T19:51:37.692Z,96.25
2022-09-12T19:54:06.063Z,95.71
2022-09-12T19:56:33.276Z,97.58
2022-09-12T19:59:01.228Z,97.40
2022-09-12T20:01:29.019Z,98.65
2022-09-12T20:03:58.655Z,100.00
2022-09-12T20:06:27.235Z,100.00
2022-09-12T20:08:55.770Z,100.00
2022-09-12T20:11:24.132Z,100.00
2022-09-12T20:13:52.996Z,100.00
2022-09-12T20:16:26.559Z,100.00
2022-09-12T20:18:56.944Z,100.00
2022-09-12T20:21:31.051Z,99.89
2022-09-12T20:24:01.184Z,100.00
2022-09-12T20:26:28.543Z,100.00
2022-09-12T20:28:56.054Z,100.00
2022-09-12T20:31:23.563Z,100.00
2022-09-12T20:33:52.093Z,100.00
2022-09-12T20:36:21.444Z,100.00
2022-09-12T20:38:51.941Z,100.00
2022-09-12T20:41:20.928Z,100.00
2022-09-12T20:43:52.505Z,100.00
2022-09-12T20:46:22.261Z,100.00
2022-09-12T20:48:51.280Z,100.00
2022-09-12T20:51:19.808Z,100.00
2022-09-12T20:53:48.160Z,100.00
2022-09-12T20:56:15.894Z,100.00
2022-09-12T20:58:44.617Z,100.00
2022-09-12T21:01:15.696Z,100.00
2022-09-12T21:03:44.780Z,100.00
2022-09-12T21:06:13.477Z,100.00
2022-09-12T21:08:40.894Z,100.00
2022-09-12T21:11:08.919Z,100.00
2022-09-12T21:13:36.714Z,100.00
2022-09-12T21:16:10.725Z,100.00
2022-09-12T21:18:38.507Z,100.00
2022-09-12T21:21:05.969Z,100.00
2022-09-12T21:23:34.435Z,100.00
2022-09-12T21:26:02.661Z,100.00
2022-09-12T21:28:31.634Z,100.00
2022-09-12T21:31:00.267Z,100.00
2022-09-12T21:33:28.485Z,100.00
2022-09-12T21:35:55.971Z,100.00
2022-09-12T21:38:23.280Z,100.00
2022-09-12T21:40:50.897Z,100.00
2022-09-12T21:43:18.977Z,100.00
2022-09-12T21:45:46.603Z,100.00
2022-09-12T21:48:13.883Z,100.00
2022-09-12T21:50:41.383Z,100.00
2022-09-12T21:53:08.964Z,100.00
2022-09-12T21:55:36.384Z,100.00
2022-09-12T21:58:03.961Z,100.00
2022-09-12T22:00:31.734Z,100.00
2022-09-12T22:02:59.083Z,100.00
2022-09-12T22:05:29.948Z,100.00
2022-09-12T22:07:58.843Z,100.00
2022-09-12T22:10:27.396Z,100.00
2022-09-12T22:12:55.657Z,100.00
2022-09-12T22:15:40.114Z,100.00
2022-09-12T22:18:08.668Z,100.00
2022-09-12T22:20:36.550Z,100.00
2022-09-12T22:23:24.965Z,100.00
2022-09-12T22:25:57.210Z,100.00
2022-09-12T22:28:25.308Z,100.00
2022-09-12T22:30:54.411Z,100.00
2022-09-12T22:33:22.770Z,100.00
2022-09-12T22:35:50.105Z,100.00
2022-09-12T22:38:17.666Z,100.00
2022-09-12T22:40:44.890Z,100.00
2022-09-12T22:43:12.869Z,100.00
2022-09-12T22:45:41.758Z,100.00
2022-09-12T22:48:09.492Z,100.00
2022-09-12T22:50:36.797Z,100.00
2022-09-12T22:53:04.140Z,100.00
2022-09-12T22:55:31.520Z,100.00
2022-09-12T22:57:59.173Z,100.00
2022-09-12T23:00:28.023Z,100.00
2022-09-12T23:02:56.421Z,100.00
2022-09-12T23:05:23.859Z,100.00
2022-09-12T23:07:51.811Z,100.00
2022-09-12T23:10:19.596Z,100.00
2022-09-12T23:12:46.975Z,100.00
2022-09-12T23:15:15.248Z,100.00
2022-09-12T23:17:42.691Z,100.00
2022-09-12T23:20:10.155Z,100.00
2022-09-12T23:22:37.490Z,100.00
2022-09-12T23:25:05.819Z,100.00
2022-09-12T23:27:34.863Z,100.00
2022-09-12T23:30:02.811Z,100.00
2022-09-12T23:32:30.257Z,100.00
2022-09-12T23:34:58.980Z,100.00
2022-09-12T23:37:26.568Z,100.00
2022-09-12T23:39:54.027Z,100.00
2022-09-12T23:42:22.109Z,100.00
2022-09-12T23:44:49.367Z,100.00
2022-09-12T23:47:18.443Z,100.00
2022-09-12T23:49:45.812Z,100.00
2022-09-12T23:52:13.077Z,100.00
2022-09-12T23:54:40.397Z,100.00
2022-09-12T23:57:07.980Z,100.00
2022-09-12T23:59:35.790Z,100.00
